Big Bear Station Historical Data
Daily Summary for February 12, 2017 Units:  English    Metric   Both
« Previous Day
Next Day »
Daily Weekly Monthly Yearly Custom
  High: Low: Average:
Temperature: 41.5 °F 32.2 °F 35.4 °F
Dew Point: 35.2 °F 28.7 °F 31.7 °F
Humidity: 99 % 73 % 87 %
Wind Speed: 6.3 mph 0.0 mph 2 mph
Wind Gust: -999.0 mph - -
Wind:- - SW
Pressure: 30.17 in 30.09 in -
Precipitation: 0.18 in    
Historical Graphs
 
 
Tabular Data for February 12, 2017
Time Temperature Dew Point Pressure Wind Wind Speed Wind Gust Humidity Rainfall Rate (Hourly)
00:01 32.9 °F 31.6 °F 30.10 in Calm   -999.0 mph 95 % 0 in
00:16 32.7 °F 31.4 °F 30.10 in Calm   -999.0 mph 95 % 0 in
00:32 32.2 °F 30.9 °F 30.10 in Calm   -999.0 mph 95 % 0 in
00:47 32.4 °F 31.1 °F 30.10 in Calm   -999.0 mph 95 % 0 in
01:02 32.9 °F 31.6 °F 30.10 in SSW 2.2 mph -999.0 mph 95 % 0 in
01:17 32.9 °F 31.6 °F 30.10 in Calm   -999.0 mph 95 % 0 in
01:33 32.7 °F 31.7 °F 30.10 in NNW 3.2 mph -999.0 mph 96 % 0 in
01:48 32.2 °F 30.9 °F 30.10 in WNW 1.7 mph -999.0 mph 95 % 0 in
02:03 32.4 °F 31.4 °F 30.10 in South 1.1 mph -999.0 mph 96 % 0 in
02:18 32.5 °F 31.7 °F 30.09 in NE 2.2 mph -999.0 mph 97 % 0 in
02:33 32.9 °F 32.1 °F 30.09 in WNW 2.2 mph -999.0 mph 97 % 0 in
02:49 33.3 °F 32.5 °F 30.10 in WNW 1.7 mph -999.0 mph 97 % 0 in
03:04 32.9 °F 32.1 °F 30.09 in WNW 1.1 mph -999.0 mph 97 % 0 in
03:19 32.7 °F 31.7 °F 30.10 in NW 2.7 mph -999.0 mph 96 % 0 in
03:34 33.1 °F 31.8 °F 30.10 in NNW 3.7 mph -999.0 mph 95 % 0 in
03:50 33.3 °F 32.0 °F 30.10 in NNW 4.7 mph -999.0 mph 95 % 0 in
04:05 33.3 °F 32.5 °F 30.10 in NNW 2.7 mph -999.0 mph 97 % 0 in
04:20 32.5 °F 31.7 °F 30.10 in Calm   -999.0 mph 97 % 0 in
04:36 32.4 °F 31.6 °F 30.10 in Calm   -999.0 mph 97 % 0 in
04:51 32.5 °F 32.0 °F 30.10 in WNW 2.7 mph -999.0 mph 98 % 0 in
05:06 32.9 °F 32.6 °F 30.10 in NNW 5.8 mph -999.0 mph 99 % 0 in
05:22 32.7 °F 32.4 °F 30.11 in North 1.7 mph -999.0 mph 99 % 0 in
05:37 32.7 °F 32.4 °F 30.11 in NW 5.8 mph -999.0 mph 99 % 0 in
05:52 32.7 °F 32.4 °F 30.12 in NNW 4.7 mph -999.0 mph 99 % 0 in
06:08 32.5 °F 32.3 °F 30.13 in West 1.1 mph -999.0 mph 99 % 0 in
06:23 32.5 °F 32.3 °F 30.13 in NNW 3.7 mph -999.0 mph 99 % 0 in
06:39 32.2 °F 32.0 °F 30.13 in Calm   -999.0 mph 99 % 0 in
06:54 32.2 °F 32.0 °F 30.14 in ESE 1.7 mph -999.0 mph 99 % 0 in
07:10 32.2 °F 32.0 °F 30.14 in NNE 3.7 mph -999.0 mph 99 % 0 in
07:25 32.2 °F 31.7 °F 30.14 in NW 4.2 mph -999.0 mph 98 % 0 in
07:40 32.2 °F 31.7 °F 30.15 in ESE 4.2 mph -999.0 mph 98 % 0 in
07:55 32.5 °F 32.0 °F 30.15 in NW 1.7 mph -999.0 mph 98 % 0 in
08:11 32.7 °F 31.9 °F 30.15 in NW 3.2 mph -999.0 mph 97 % 0 in
08:26 33.1 °F 31.8 °F 30.15 in SW 2.2 mph -999.0 mph 95 % 0 in
08:41 33.8 °F 32.3 °F 30.15 in NE 1.7 mph -999.0 mph 94 % 0 in
08:57 35.1 °F 33.0 °F 30.16 in NW 2.7 mph -999.0 mph 92 % 0 in
09:12 35.2 °F 32.8 °F 30.16 in NNW 2.7 mph -999.0 mph 91 % 0 in
09:27 35.6 °F 33.2 °F 30.16 in Calm   -999.0 mph 91 % 0 in
09:42 36.3 °F 33.4 °F 30.16 in ESE 1.7 mph -999.0 mph 89 % 0 in
09:58 36.0 °F 33.4 °F 30.16 in Calm   -999.0 mph 90 % 0 in
10:13 36.0 °F 33.4 °F 30.16 in NW 3.2 mph -999.0 mph 90 % 0 in
10:28 36.3 °F 33.6 °F 30.17 in NNW 4.7 mph -999.0 mph 90 % 0 in
10:43 36.9 °F 34.0 °F 30.16 in NW 2.2 mph -999.0 mph 89 % 0 in
10:58 36.5 °F 33.8 °F 30.16 in East 2.2 mph -999.0 mph 90 % 0 in
11:14 37.0 °F 33.8 °F 30.16 in NE 4.7 mph -999.0 mph 88 % 0 in
11:29 36.9 °F 34.0 °F 30.16 in Calm   -999.0 mph 89 % 0 in
11:44 37.4 °F 33.9 °F 30.16 in Calm   -999.0 mph 87 % 0 in
11:59 38.7 °F 34.6 °F 30.15 in Calm   -999.0 mph 85 % 0 in
12:14 39.9 °F 35.2 °F 30.15 in SW 1.1 mph -999.0 mph 83 % 0 in
12:30 40.3 °F 35.2 °F 30.15 in NNE 1.1 mph -999.0 mph 82 % 0 in
12:45 40.5 °F 34.8 °F 30.14 in ENE 2.2 mph -999.0 mph 80 % 0 in
13:00 39.9 °F 33.9 °F 30.14 in WNW 3.2 mph -999.0 mph 79 % 0 in
13:16 39.0 °F 33.4 °F 30.14 in North 6.3 mph -999.0 mph 80 % 0 in
13:31 39.2 °F 33.2 °F 30.14 in North 5.3 mph -999.0 mph 79 % 0 in
13:46 40.1 °F 33.8 °F 30.14 in ESE 2.2 mph -999.0 mph 78 % 0 in
14:01 41.4 °F 34.4 °F 30.14 in WSW 1.7 mph -999.0 mph 76 % 0 in
14:17 41.5 °F 34.2 °F 30.14 in NW 4.7 mph -999.0 mph 75 % 0 in
14:32 40.6 °F 33.6 °F 30.14 in NW 3.2 mph -999.0 mph 76 % 0 in
14:47 40.3 °F 33.3 °F 30.14 in NNW 3.2 mph -999.0 mph 76 % 0 in
15:02 39.4 °F 32.5 °F 30.14 in NNW 3.7 mph -999.0 mph 76 % 0 in
15:18 39.9 °F 32.6 °F 30.14 in NNW 3.7 mph -999.0 mph 75 % 0 in
15:33 40.5 °F 32.9 °F 30.14 in East 2.2 mph -999.0 mph 74 % 0 in
15:48 39.7 °F 31.8 °F 30.14 in ENE 2.2 mph -999.0 mph 73 % 0 in
16:03 38.8 °F 32.2 °F 30.13 in Calm   -999.0 mph 77 % 0 in
16:18 39.0 °F 32.1 °F 30.13 in NE 3.7 mph -999.0 mph 76 % 0 in
16:34 38.7 °F 31.8 °F 30.13 in West 1.7 mph -999.0 mph 76 % 0 in
16:49 37.9 °F 31.3 °F 30.13 in NE 1.7 mph -999.0 mph 77 % 0 in
17:04 37.2 °F 31.0 °F 30.14 in ESE 2.2 mph -999.0 mph 78 % 0 in
17:19 36.1 °F 30.5 °F 30.14 in Calm   -999.0 mph 80 % 0 in
17:34 35.2 °F 30.0 °F 30.14 in Calm   -999.0 mph 81 % 0 in
17:50 34.3 °F 29.1 °F 30.14 in Calm   -999.0 mph 81 % 0 in
18:05 33.8 °F 28.9 °F 30.14 in Calm   -999.0 mph 82 % 0 in
18:20 34.3 °F 29.4 °F 30.15 in SE 1.7 mph -999.0 mph 82 % 0 in
18:35 34.3 °F 29.7 °F 30.15 in NE 1.1 mph -999.0 mph 83 % 0 in
18:51 35.2 °F 30.0 °F 30.15 in Calm   -999.0 mph 81 % 0 in
19:06 34.7 °F 29.8 °F 30.16 in Calm   -999.0 mph 82 % 0 in
19:21 34.5 °F 29.6 °F 30.16 in WNW 1.1 mph -999.0 mph 82 % 0 in
19:36 34.0 °F 29.7 °F 30.16 in WNW 1.7 mph -999.0 mph 84 % 0 in
19:52 34.2 °F 29.6 °F 30.16 in Calm   -999.0 mph 83 % 0 in
20:07 34.3 °F 30.0 °F 30.16 in Calm   -999.0 mph 84 % 0 in
20:22 34.5 °F 30.2 °F 30.16 in South 1.7 mph -999.0 mph 84 % 0 in
20:37 34.7 °F 30.7 °F 30.16 in SSE 1.1 mph -999.0 mph 85 % 0 in
20:52 34.9 °F 30.6 °F 30.16 in NW 1.7 mph -999.0 mph 84 % 0 in
21:08 35.1 °F 30.2 °F 30.16 in ENE 2.2 mph -999.0 mph 82 % 0 in
21:23 35.4 °F 29.2 °F 30.16 in NNE 3.7 mph -999.0 mph 78 % 0 in
21:38 35.6 °F 29.4 °F 30.16 in NNW 1.1 mph -999.0 mph 78 % 0 in
21:53 35.8 °F 29.3 °F 30.16 in SSE 1.7 mph -999.0 mph 77 % 0 in
22:08 36.0 °F 29.5 °F 30.16 in Calm   -999.0 mph 77 % 0 in
22:24 36.3 °F 29.5 °F 30.16 in NW 4.2 mph -999.0 mph 76 % 0 in
22:39 36.5 °F 29.7 °F 30.16 in ESE 1.7 mph -999.0 mph 76 % 0 in
22:54 36.3 °F 29.5 °F 30.16 in Calm   -999.0 mph 76 % 0 in
23:09 36.5 °F 28.7 °F 30.16 in NNW 2.2 mph -999.0 mph 73 % 0 in
23:24 36.7 °F 28.9 °F 30.16 in ESE 1.7 mph -999.0 mph 73 % 0 in
23:40 35.8 °F 29.3 °F 30.16 in ENE 2.7 mph -999.0 mph 77 % 0 in
23:56 35.2 °F 29.0 °F 30.15 in Calm   -999.0 mph 78 % 0 in
Big Bear CA Weather
Compliments of Weather Underground - 1.5 mb